createdAt,value
2018-12-26T00:02:44.301Z,4.80
2018-12-26T00:05:47.111Z,4.70
2018-12-26T00:08:49.954Z,4.70
2018-12-26T00:11:52.665Z,4.60
2018-12-26T00:14:55.364Z,4.60
2018-12-26T00:17:58.130Z,4.50
2018-12-26T00:21:00.780Z,4.50
2018-12-26T00:24:03.592Z,4.40
2018-12-26T00:27:06.298Z,4.40
2018-12-26T00:30:09.059Z,4.50
2018-12-26T00:33:11.766Z,4.50
2018-12-26T00:36:14.451Z,4.40
2018-12-26T00:39:17.064Z,4.30
2018-12-26T00:42:19.655Z,4.20
2018-12-26T00:45:23.416Z,4.10
2018-12-26T00:48:27.224Z,4.10
2018-12-26T00:51:29.885Z,4.10
2018-12-26T00:54:32.585Z,4.20
2018-12-26T00:57:35.109Z,4.10
2018-12-26T01:00:37.807Z,4.10
2018-12-26T01:03:40.488Z,4.10
2018-12-26T01:06:43.246Z,4.10
2018-12-26T01:09:45.893Z,4.10
2018-12-26T01:12:48.595Z,4.10
2018-12-26T01:15:51.278Z,4.10
2018-12-26T01:18:53.994Z,4.10
2018-12-26T01:21:56.527Z,4.10
2018-12-26T01:24:59.218Z,4.10
2018-12-26T01:28:01.761Z,4.10
2018-12-26T01:31:04.429Z,4.10
2018-12-26T01:34:07.113Z,4.00
2018-12-26T01:37:09.696Z,4.10
2018-12-26T01:40:12.358Z,4.10
2018-12-26T01:43:15.077Z,4.10
2018-12-26T01:46:17.659Z,4.20
2018-12-26T01:49:20.316Z,4.10
2018-12-26T01:52:23.036Z,4.10
2018-12-26T01:55:26.948Z,4.00
2018-12-26T01:58:29.550Z,4.00
2018-12-26T02:01:32.311Z,4.00
2018-12-26T02:04:35.106Z,4.00
2018-12-26T02:07:37.887Z,4.00
2018-12-26T02:10:40.738Z,4.00
2018-12-26T02:13:43.311Z,3.90
2018-12-26T02:16:45.992Z,3.90
2018-12-26T02:19:48.607Z,3.80
2018-12-26T02:22:51.321Z,3.80
2018-12-26T02:25:54.076Z,3.70
2018-12-26T02:28:56.831Z,3.70
2018-12-26T02:31:59.585Z,3.80
2018-12-26T02:35:02.613Z,3.70
2018-12-26T02:38:05.492Z,3.70
2018-12-26T02:41:08.423Z,3.70
2018-12-26T02:44:11.203Z,3.70
2018-12-26T02:47:14.054Z,3.70
2018-12-26T02:50:17.075Z,3.80
2018-12-26T02:53:19.751Z,3.80
2018-12-26T02:56:22.548Z,3.80
2018-12-26T02:59:25.367Z,3.90
2018-12-26T03:02:28.110Z,3.80
2018-12-26T03:05:30.788Z,3.80
2018-12-26T03:08:33.476Z,3.90
2018-12-26T03:11:36.061Z,3.90
2018-12-26T03:14:38.847Z,3.90
2018-12-26T03:17:41.431Z,4.00
2018-12-26T03:20:44.137Z,3.90
2018-12-26T03:23:46.830Z,3.90
2018-12-26T03:26:56.202Z,3.90
2018-12-26T03:29:54.332Z,3.90
2018-12-26T03:32:57.015Z,3.90
2018-12-26T03:35:59.685Z,3.80
2018-12-26T03:39:03.708Z,3.90
2018-12-26T03:42:06.376Z,3.90
2018-12-26T03:45:09.028Z,3.80
2018-12-26T03:48:11.978Z,3.70
2018-12-26T03:51:14.734Z,3.70
2018-12-26T03:54:19.150Z,3.60
2018-12-26T03:57:21.791Z,3.50
2018-12-26T04:00:24.435Z,3.50
2018-12-26T04:03:28.249Z,3.50
2018-12-26T04:06:30.930Z,3.60
2018-12-26T04:09:33.639Z,3.70
2018-12-26T04:12:39.292Z,3.60
2018-12-26T04:15:42.033Z,3.60
2018-12-26T04:18:44.773Z,3.50
2018-12-26T04:21:47.589Z,3.40
2018-12-26T04:24:50.277Z,3.40
2018-12-26T04:27:52.976Z,3.40
2018-12-26T04:30:55.542Z,3.40
2018-12-26T04:33:58.406Z,3.50
2018-12-26T04:37:01.038Z,3.40
2018-12-26T04:40:04.891Z,3.40
2018-12-26T04:43:07.608Z,3.40
2018-12-26T04:46:10.282Z,3.40
2018-12-26T04:49:13.047Z,3.50
2018-12-26T04:52:15.784Z,3.40
2018-12-26T04:55:18.443Z,3.30
2018-12-26T04:58:21.083Z,3.30
2018-12-26T05:01:24.034Z,3.30
2018-12-26T05:04:26.729Z,3.30
2018-12-26T05:07:29.391Z,3.30
2018-12-26T05:10:32.810Z,3.30
2018-12-26T05:13:35.402Z,3.40
2018-12-26T05:16:38.036Z,3.40
2018-12-26T05:19:40.843Z,3.30
2018-12-26T05:22:43.610Z,3.30
2018-12-26T05:25:46.272Z,3.20
2018-12-26T05:28:49.016Z,3.20
2018-12-26T05:31:51.713Z,3.10
2018-12-26T05:34:54.382Z,3.10
2018-12-26T05:37:57.146Z,3.10
2018-12-26T05:40:59.789Z,3.20
2018-12-26T05:44:02.465Z,3.20
2018-12-26T05:47:05.098Z,3.20
2018-12-26T05:50:07.869Z,3.30
2018-12-26T05:53:10.517Z,3.30
2018-12-26T05:56:13.205Z,3.30
2018-12-26T05:59:15.925Z,3.40
2018-12-26T06:02:18.540Z,3.60
2018-12-26T06:05:21.221Z,3.70
2018-12-26T06:08:23.908Z,3.90
2018-12-26T06:11:26.567Z,3.90
2018-12-26T06:14:29.286Z,4.00
2018-12-26T06:17:31.934Z,4.00
2018-12-26T06:20:34.717Z,4.00
2018-12-26T06:23:37.355Z,4.00
2018-12-26T06:26:40.077Z,4.10
2018-12-26T06:29:42.771Z,4.10
2018-12-26T06:32:46.907Z,4.00
2018-12-26T06:35:49.597Z,4.00
2018-12-26T06:38:52.378Z,4.00
2018-12-26T06:41:55.283Z,3.90
2018-12-26T06:44:58.016Z,3.90
2018-12-26T06:48:00.783Z,3.90
2018-12-26T06:51:03.524Z,3.90
2018-12-26T06:54:06.212Z,4.00
2018-12-26T06:57:08.762Z,4.00
2018-12-26T07:00:11.454Z,4.00
2018-12-26T07:03:14.009Z,4.00
2018-12-26T07:06:16.763Z,4.00
2018-12-26T07:09:19.423Z,4.10
2018-12-26T07:12:22.086Z,4.10
2018-12-26T07:15:25.036Z,4.10
2018-12-26T07:18:27.703Z,4.00
2018-12-26T07:21:30.400Z,4.00
2018-12-26T07:24:33.024Z,4.00
2018-12-26T07:27:35.640Z,4.00
2018-12-26T07:30:38.322Z,4.00
2018-12-26T07:33:40.895Z,4.00
2018-12-26T07:36:43.787Z,4.00
2018-12-26T07:39:46.522Z,4.00
2018-12-26T07:42:49.199Z,3.90
2018-12-26T07:45:51.930Z,3.90
2018-12-26T07:48:54.675Z,3.90
2018-12-26T07:51:57.443Z,4.00
2018-12-26T07:55:00.263Z,4.00
2018-12-26T07:58:03.024Z,4.00
2018-12-26T08:01:05.757Z,4.00
2018-12-26T08:04:08.305Z,4.00
2018-12-26T08:07:11.061Z,4.00
2018-12-26T08:10:13.623Z,4.00
2018-12-26T08:13:16.430Z,4.00
2018-12-26T08:16:19.058Z,4.00
2018-12-26T08:19:21.956Z,3.90
2018-12-26T08:22:24.605Z,4.00
2018-12-26T08:25:27.315Z,4.00
2018-12-26T08:28:31.233Z,4.00
2018-12-26T08:31:34.067Z,4.00
2018-12-26T08:34:37.570Z,4.10
2018-12-26T08:37:40.456Z,4.20
2018-12-26T08:40:43.318Z,4.30
2018-12-26T08:43:46.006Z,4.30
2018-12-26T08:46:49.762Z,4.40
2018-12-26T08:49:52.516Z,4.40
2018-12-26T08:52:55.202Z,4.50
2018-12-26T08:55:57.870Z,4.50
2018-12-26T08:59:00.589Z,4.50
2018-12-26T09:02:03.231Z,4.60
2018-12-26T09:05:06.031Z,4.60
2018-12-26T09:08:08.810Z,4.70
2018-12-26T09:11:11.461Z,4.80
2018-12-26T09:14:14.113Z,4.90
2018-12-26T09:17:16.767Z,4.90
2018-12-26T09:20:19.559Z,4.90
2018-12-26T09:23:22.275Z,5.00
2018-12-26T09:26:25.117Z,5.00
2018-12-26T09:29:27.771Z,5.10
2018-12-26T09:32:30.506Z,5.10
2018-12-26T09:35:33.183Z,5.10
2018-12-26T09:38:35.971Z,5.10
2018-12-26T09:41:38.812Z,5.10
2018-12-26T09:44:43.511Z,5.10
2018-12-26T09:47:46.931Z,5.10
2018-12-26T09:50:49.939Z,5.10
2018-12-26T09:53:52.801Z,5.10
2018-12-26T09:56:56.744Z,5.10
2018-12-26T09:59:59.782Z,5.10
2018-12-26T10:03:05.732Z,5.20
2018-12-26T10:06:08.614Z,5.20
2018-12-26T10:09:11.164Z,5.30
2018-12-26T15:08:40.341Z,6.70
2018-12-26T15:11:45.119Z,6.80
2018-12-26T15:14:50.000Z,6.70
2018-12-26T15:17:54.794Z,6.80
2018-12-26T15:20:57.456Z,6.70
2018-12-26T15:24:02.182Z,6.70
2018-12-26T15:27:04.959Z,6.80
2018-12-26T15:30:08.457Z,6.70
2018-12-26T15:33:13.514Z,6.70
2018-12-26T15:36:17.835Z,6.70
2018-12-26T15:39:21.201Z,6.70
2018-12-26T15:42:25.123Z,6.70
2018-12-26T15:45:30.353Z,6.80
2018-12-26T15:48:34.393Z,6.70
2018-12-26T15:51:37.165Z,6.80
2018-12-26T15:54:40.049Z,6.80
2018-12-26T15:57:42.689Z,6.80
2018-12-26T16:00:45.356Z,6.80
2018-12-26T16:03:48.095Z,6.90
2018-12-26T16:06:51.777Z,6.90
2018-12-26T16:09:54.565Z,6.90
2018-12-26T16:12:57.243Z,6.90
2018-12-26T16:15:59.998Z,7.00
2018-12-26T16:19:02.657Z,6.90
2018-12-26T16:22:05.552Z,7.00
2018-12-26T16:25:08.741Z,7.00
2018-12-26T16:28:11.508Z,7.10
2018-12-26T16:31:14.280Z,7.10
2018-12-26T16:34:17.174Z,7.10
2018-12-26T16:37:22.425Z,7.20
2018-12-26T16:40:26.626Z,7.30
2018-12-26T16:43:32.564Z,7.40
2018-12-26T16:46:38.200Z,7.40
2018-12-26T16:49:41.617Z,7.40
2018-12-26T16:52:44.859Z,7.50
2018-12-26T16:55:47.889Z,7.50
2018-12-26T16:58:50.999Z,7.50
2018-12-26T17:02:01.924Z,7.60
2018-12-26T17:05:05.966Z,7.60
2018-12-26T17:08:08.799Z,7.70
2018-12-26T17:11:11.883Z,7.60
2018-12-26T17:14:14.681Z,7.70
2018-12-26T17:17:22.890Z,7.60
2018-12-26T17:20:27.042Z,7.60
2018-12-26T17:23:31.030Z,7.60
2018-12-26T17:26:39.505Z,7.60
2018-12-26T17:29:46.369Z,7.60
2018-12-26T17:32:49.580Z,7.60
2018-12-26T17:35:52.265Z,7.60
2018-12-26T17:38:55.197Z,7.50
2018-12-26T17:42:00.184Z,7.50
2018-12-26T17:45:03.546Z,7.50
2018-12-26T17:48:06.095Z,7.50
2018-12-26T17:51:14.528Z,7.50
2018-12-26T17:54:47.045Z,7.50
2018-12-26T17:57:52.008Z,7.50
2018-12-26T18:01:25.100Z,7.50
2018-12-26T18:04:29.366Z,7.50
2018-12-26T18:07:31.974Z,7.50
2018-12-26T18:10:34.578Z,7.50
2018-12-26T18:13:37.208Z,7.50
2018-12-26T18:16:39.725Z,7.50
2018-12-26T18:19:42.368Z,7.60
2018-12-26T18:22:45.357Z,7.60
2018-12-26T18:25:50.844Z,7.60
2018-12-26T18:28:53.510Z,7.70
2018-12-26T18:31:56.143Z,7.70
2018-12-26T18:35:01.516Z,7.70
2018-12-26T18:38:06.649Z,7.70
2018-12-26T18:41:09.295Z,7.70
2018-12-26T18:44:12.122Z,7.70
2018-12-26T18:47:15.009Z,7.70
2018-12-26T18:50:17.496Z,7.70
2018-12-26T18:53:21.175Z,7.70
2018-12-26T18:56:24.980Z,7.70
2018-12-26T18:59:27.443Z,7.70
2018-12-26T19:02:30.099Z,7.70
2018-12-26T19:05:32.814Z,7.70
2018-12-26T19:08:35.709Z,7.70
2018-12-26T19:11:39.459Z,7.70
2018-12-26T19:14:42.294Z,7.70
2018-12-26T19:17:45.290Z,7.70
2018-12-26T19:20:49.490Z,7.70
2018-12-26T19:23:54.410Z,7.70
2018-12-26T19:26:57.080Z,7.50
2018-12-26T19:29:59.743Z,7.60
2018-12-26T19:33:02.457Z,7.50
2018-12-26T19:36:06.213Z,7.50
2018-12-26T19:39:08.825Z,7.40
2018-12-26T19:42:11.456Z,7.40
2018-12-26T19:45:14.086Z,7.40
2018-12-26T19:48:16.726Z,7.40
2018-12-26T19:51:19.436Z,7.40
2018-12-26T19:54:23.330Z,7.50
2018-12-26T19:57:27.234Z,7.60
2018-12-26T20:00:29.919Z,7.60
2018-12-26T20:03:32.720Z,7.60
2018-12-26T20:06:36.784Z,7.60
2018-12-26T20:09:39.262Z,7.60
2018-12-26T20:12:41.826Z,7.60
2018-12-26T20:15:44.409Z,7.60
2018-12-26T20:18:47.378Z,7.60
2018-12-26T20:21:49.897Z,7.60
2018-12-26T20:24:52.596Z,7.60
2018-12-26T20:27:55.193Z,7.60
2018-12-26T20:31:05.531Z,7.60
2018-12-26T20:34:09.249Z,7.50
2018-12-26T20:37:11.927Z,7.50
2018-12-26T20:40:14.783Z,7.40
2018-12-26T20:43:17.458Z,7.40
2018-12-26T20:46:21.001Z,7.40
2018-12-26T20:49:23.676Z,7.40
2018-12-26T20:52:26.434Z,7.40
2018-12-26T20:55:29.128Z,7.40
2018-12-26T20:58:31.853Z,7.40
2018-12-26T21:01:34.583Z,7.40
2018-12-26T21:04:37.285Z,7.30
2018-12-26T21:07:40.041Z,7.40
2018-12-26T21:10:44.698Z,7.30
2018-12-26T21:13:47.295Z,7.30
2018-12-26T21:16:55.000Z,7.30
2018-12-26T21:19:54.475Z,7.30
2018-12-26T21:22:57.269Z,7.30
2018-12-26T21:25:59.960Z,7.30
2018-12-26T21:29:03.353Z,7.30
2018-12-26T21:32:13.912Z,7.20
2018-12-26T21:35:10.670Z,7.30
2018-12-26T21:38:14.524Z,7.30
2018-12-26T21:41:18.650Z,7.30
2018-12-26T21:44:21.211Z,7.20
2018-12-26T21:47:23.953Z,7.20
2018-12-26T21:50:26.656Z,7.20
2018-12-26T21:53:29.316Z,7.20
2018-12-26T21:56:31.849Z,7.20
2018-12-26T21:59:34.687Z,7.20
2018-12-26T22:02:37.302Z,7.20
2018-12-26T22:05:39.970Z,7.10
2018-12-26T22:08:42.549Z,7.20
2018-12-26T22:11:45.194Z,7.10
2018-12-26T22:14:49.050Z,7.10
2018-12-26T22:17:51.610Z,7.10
2018-12-26T22:20:55.238Z,7.10
2018-12-26T22:23:57.840Z,7.10
2018-12-26T22:27:00.468Z,7.10
2018-12-26T22:30:03.454Z,7.00
2018-12-26T22:33:06.164Z,7.00
2018-12-26T22:36:11.564Z,7.00
2018-12-26T22:39:14.088Z,7.00
2018-12-26T22:42:17.004Z,7.00
2018-12-26T22:45:19.741Z,6.90
2018-12-26T22:48:22.451Z,6.90
2018-12-26T22:51:25.548Z,7.00
2018-12-26T22:54:28.271Z,6.90
2018-12-26T22:57:30.902Z,6.90
2018-12-26T23:00:44.024Z,6.90
2018-12-26T23:03:46.624Z,7.00
2018-12-26T23:06:49.374Z,6.90
2018-12-26T23:09:52.060Z,6.90
2018-12-26T23:12:54.697Z,6.90
2018-12-26T23:15:57.242Z,7.00
2018-12-26T23:18:59.801Z,6.90
2018-12-26T23:22:02.512Z,7.00
2018-12-26T23:25:05.338Z,6.90
2018-12-26T23:28:08.086Z,7.00
2018-12-26T23:31:10.739Z,7.00
2018-12-26T23:34:16.407Z,7.00
2018-12-26T23:37:18.989Z,6.90
2018-12-26T23:40:21.766Z,7.00
2018-12-26T23:43:24.295Z,7.00
2018-12-26T23:46:26.980Z,7.00
2018-12-26T23:49:29.674Z,7.00
2018-12-26T23:52:33.301Z,6.90
2018-12-26T23:55:36.003Z,7.00
2018-12-26T23:58:38.810Z,7.00
